Avalon, Pennsylvania
Current Conditions -  °F | °C
As of 12:51 AM on Tuesday 21 Oct 2014 (Local Time) from KPIT Reporting Station
Light Rain Light Rain  
Wind Chill: 11°   Ceiling: 5000
Heat Index: 11°   Visibility: 10mi
Dew Point:   Wind: 7mph
Humidity: 86%   Direction: 220°SW
Pressure: 29.85"   Gusts: NA
Location:  40.5069°N, 80.0715°W
Report Text: KPIT 210451Z 22006KT 10SM -RA OVC050 11/08 A2985 RMK AO2 RAB08 SLP118 P0000 T01060083 401390056
Loading
Personal Weather Stations






























Interactive Weather Map
Tropical Storm Tracking
New forecast layout! Learn more

10-Day Weather Forecast

Advertisements
Track Severe Weather on mobile